Aniara — SKJC — position and weather

sailwx.info

Track history (hours):
 
Tides and Currents Weather Stations Pressure Air Temp Water Temp Dewpoint Dewpoint Depression Visibility Wind Speed Wind Dir Waves Ship Positions

Aniara

Last reported at 2017-Oct-21 15:09 UTC. Time now 2017-Oct-23 02:50 UTC.
Position N 36°49' W 075°47'.

Length 232 m; draft 9.7 m.

Type: Cargo ship. MMSI: 266282000.

Date/timePositionNaut miles runAvg speedWind from/ knotsBaromVisibWave heightAir tempDewpointWater temp
2017-Oct-21 15:09N 36°49' W 075°47'317.5
2017-Oct-21 14:57N 36°51' W 075°50'716.0
2017-Oct-21 14:30N 36°55' W 075°57'1714.8
2017-Oct-21 13:23N 37°09' W 076°09'916.9
2017-Oct-21 12:50N 37°18' W 076°07'817.3
2017-Oct-21 12:24N 37°26' W 076°05'4917.3
2017-Oct-21 09:34N 38°14' W 076°16'118.0
2017-Oct-21 09:30N 38°15' W 076°16'917.8
2017-Oct-21 09:00N 38°23' W 076°20'1017.7
2017-Oct-21 08:25N 38°33' W 076°26'717.5
2017-Oct-21 08:01N 38°40' W 076°25'917.7
2017-Oct-21 07:31N 38°49' W 076°25'917.5
2017-Oct-21 07:01N 38°58' W 076°23'815.2
2017-Oct-21 06:31N 39°05' W 076°24'713.3
2017-Oct-21 06:01N 39°11' W 076°27'510.3
2017-Oct-21 05:30N 39°14' W 076°33'1 2.1
2017-Oct-21 04:59N 39°15' W 076°32'0 0.0
2017-Oct-21 04:26N 39°15' W 076°32'0 0.0
2017-Oct-21 03:59N 39°15' W 076°32'0 0.0
2017-Oct-21 03:29N 39°15' W 076°32'0 0.0
2017-Oct-21 02:59N 39°15' W 076°32'0 0.0
2017-Oct-21 02:29N 39°15' W 076°32'0 0.0
2017-Oct-21 01:59N 39°15' W 076°32'0 0.0
2017-Oct-21 01:29N 39°15' W 076°32'0 0.0
2017-Oct-21 00:59N 39°15' W 076°32'0 0.0
2017-Oct-21 00:29N 39°15' W 076°32'0 0.0
2017-Oct-20 23:59N 39°15' W 076°32'0 0.0
2017-Oct-20 23:29N 39°15' W 076°32'0 0.0
2017-Oct-20 22:59N 39°15' W 076°32'0 0.0
2017-Oct-20 22:29N 39°15' W 076°32'0 0.0
2017-Oct-20 21:59N 39°15' W 076°32'0 0.0
2017-Oct-20 21:29N 39°15' W 076°32'0 0.0
2017-Oct-20 20:59N 39°15' W 076°32'0 0.0
2017-Oct-20 20:29N 39°15' W 076°32'0 0.0
2017-Oct-20 19:59N 39°15' W 076°32'0 0.0
2017-Oct-20 19:29N 39°15' W 076°32'0 0.0
2017-Oct-20 18:59N 39°15' W 076°32'0 0.0
2017-Oct-20 18:29N 39°15' W 076°32'0 0.0
2017-Oct-20 17:59N 39°15' W 076°32'0 0.0
2017-Oct-20 17:29N 39°15' W 076°32'0 0.0
2017-Oct-20 16:59N 39°15' W 076°32'0 0.0
2017-Oct-20 16:29N 39°15' W 076°32'0 0.0
2017-Oct-20 15:56N 39°15' W 076°32'1 2.4
2017-Oct-20 15:31N 39°14' W 076°33'3 5.3
2017-Oct-20 15:00N 39°12' W 076°31'1211.7
2017-Oct-20 14:00N 39°02' W 076°23'816.1
2017-Oct-20 13:31N 38°54' W 076°24'917.5
2017-Oct-20 13:00N 38°45' W 076°26'917.4
2017-Oct-20 12:30N 38°37' W 076°26'4617.2
2017-Oct-20 09:49N 37°53' W 076°09'617.4
2017-Oct-20 09:30N 37°47' W 076°11'1016.3
2017-Oct-20 08:53N 37°38' W 076°07'616.3
2017-Oct-20 08:30N 37°33' W 076°02'916.3
2017-Oct-20 07:59N 37°24' W 076°05'816.4
2017-Oct-20 07:30N 37°17' W 076°07'815.8
2017-Oct-20 06:58N 37°08' W 076°09'715.7
2017-Oct-20 06:30N 37°02' W 076°04'713.9
2017-Oct-20 06:00N 36°57' W 075°58'611.9
2017-Oct-20 05:31N 36°53' W 075°52'815.3
2017-Oct-20 05:01N 36°49' W 075°44'8017.3
2017-Oct-20 00:25N 36°55' W 074°05'818.2
2017-Oct-19 23:57N 36°55' W 073°54'1518.2
2017-Oct-19 23:07N 36°55' W 073°36'218.4
2017-Oct-19 23:00N 36°55' W 073°33'  
2017-Oct-12 08:51N 50°22' W 007°17'6617.0
2017-Oct-12 04:56N 50°54' W 005°46'817.5
2017-Oct-12 04:29N 50°57' W 005°34'1417.8
2017-Oct-12 03:42N 51°03' W 005°14'418.0
2017-Oct-12 03:29N 51°05' W 005°09'918.1
2017-Oct-12 03:00N 51°09' W 004°57'1018.7
2017-Oct-12 02:29N 51°13' W 004°43'6117.3
2017-Oct-11 22:59N 51°22' W 003°07'715.6
2017-Oct-11 22:31N 51°27' W 002°58'713.8
2017-Oct-11 22:00N 51°29' W 002°48'3 5.5
2017-Oct-11 21:30N 51°30' W 002°44'0 0.4
2017-Oct-11 21:00N 51°30' W 002°43'0 0.6
2017-Oct-11 20:30N 51°30' W 002°43'0 0.0
2017-Oct-11 20:00N 51°30' W 002°43'0 0.0
2017-Oct-11 19:30N 51°30' W 002°43'0 0.0
2017-Oct-11 19:00N 51°30' W 002°43'0 0.0
2017-Oct-11 18:30N 51°30' W 002°43'0 0.0
2017-Oct-11 18:00N 51°30' W 002°43'0 0.0
2017-Oct-11 17:30N 51°30' W 002°43'0 0.0
2017-Oct-11 17:00N 51°30' W 002°43'  
Track history (hours):
 
Tides and Currents Weather Stations Pressure Air Temp Water Temp Dewpoint Dewpoint Depression Visibility Wind Speed Wind Dir Waves Ship Positions

Aniara

Last reported at 2017-Oct-21 15:09 UTC. Time now 2017-Oct-23 02:50 UTC.
Position N 36°49' W 075°47'.

Length 232 m; draft 9.7 m.

Type: Cargo ship. MMSI: 266282000.

Date/timePositionNaut miles runAvg speedWind from/ knotsBaromVisibWave heightAir tempDewpointWater temp
2017-Oct-21 15:09N 36°49' W 075°47'317.5
2017-Oct-21 14:57N 36°51' W 075°50'716.0
2017-Oct-21 14:30N 36°55' W 075°57'1714.8
2017-Oct-21 13:23N 37°09' W 076°09'916.9
2017-Oct-21 12:50N 37°18' W 076°07'817.3
2017-Oct-21 12:24N 37°26' W 076°05'4917.3
2017-Oct-21 09:34N 38°14' W 076°16'118.0
2017-Oct-21 09:30N 38°15' W 076°16'917.8
2017-Oct-21 09:00N 38°23' W 076°20'1017.7
2017-Oct-21 08:25N 38°33' W 076°26'717.5
2017-Oct-21 08:01N 38°40' W 076°25'917.7
2017-Oct-21 07:31N 38°49' W 076°25'917.5
2017-Oct-21 07:01N 38°58' W 076°23'815.2
2017-Oct-21 06:31N 39°05' W 076°24'713.3
2017-Oct-21 06:01N 39°11' W 076°27'510.3
2017-Oct-21 05:30N 39°14' W 076°33'1 2.1
2017-Oct-21 04:59N 39°15' W 076°32'0 0.0
2017-Oct-21 04:26N 39°15' W 076°32'0 0.0
2017-Oct-21 03:59N 39°15' W 076°32'0 0.0
2017-Oct-21 03:29N 39°15' W 076°32'0 0.0
2017-Oct-21 02:59N 39°15' W 076°32'0 0.0
2017-Oct-21 02:29N 39°15' W 076°32'0 0.0
2017-Oct-21 01:59N 39°15' W 076°32'0 0.0
2017-Oct-21 01:29N 39°15' W 076°32'0 0.0
2017-Oct-21 00:59N 39°15' W 076°32'0 0.0
2017-Oct-21 00:29N 39°15' W 076°32'0 0.0
2017-Oct-20 23:59N 39°15' W 076°32'0 0.0
2017-Oct-20 23:29N 39°15' W 076°32'0 0.0
2017-Oct-20 22:59N 39°15' W 076°32'0 0.0
2017-Oct-20 22:29N 39°15' W 076°32'0 0.0
2017-Oct-20 21:59N 39°15' W 076°32'0 0.0
2017-Oct-20 21:29N 39°15' W 076°32'0 0.0
2017-Oct-20 20:59N 39°15' W 076°32'0 0.0
2017-Oct-20 20:29N 39°15' W 076°32'0 0.0
2017-Oct-20 19:59N 39°15' W 076°32'0 0.0
2017-Oct-20 19:29N 39°15' W 076°32'0 0.0
2017-Oct-20 18:59N 39°15' W 076°32'0 0.0
2017-Oct-20 18:29N 39°15' W 076°32'0 0.0
2017-Oct-20 17:59N 39°15' W 076°32'0 0.0
2017-Oct-20 17:29N 39°15' W 076°32'0 0.0
2017-Oct-20 16:59N 39°15' W 076°32'0 0.0
2017-Oct-20 16:29N 39°15' W 076°32'0 0.0
2017-Oct-20 15:56N 39°15' W 076°32'1 2.4
2017-Oct-20 15:31N 39°14' W 076°33'3 5.3
2017-Oct-20 15:00N 39°12' W 076°31'1211.7
2017-Oct-20 14:00N 39°02' W 076°23'816.1
2017-Oct-20 13:31N 38°54' W 076°24'917.5
2017-Oct-20 13:00N 38°45' W 076°26'917.4
2017-Oct-20 12:30N 38°37' W 076°26'4617.2
2017-Oct-20 09:49N 37°53' W 076°09'617.4
2017-Oct-20 09:30N 37°47' W 076°11'1016.3
2017-Oct-20 08:53N 37°38' W 076°07'616.3
2017-Oct-20 08:30N 37°33' W 076°02'916.3
2017-Oct-20 07:59N 37°24' W 076°05'816.4
2017-Oct-20 07:30N 37°17' W 076°07'815.8
2017-Oct-20 06:58N 37°08' W 076°09'715.7
2017-Oct-20 06:30N 37°02' W 076°04'713.9
2017-Oct-20 06:00N 36°57' W 075°58'611.9
2017-Oct-20 05:31N 36°53' W 075°52'815.3
2017-Oct-20 05:01N 36°49' W 075°44'8017.3
2017-Oct-20 00:25N 36°55' W 074°05'818.2
2017-Oct-19 23:57N 36°55' W 073°54'1518.2
2017-Oct-19 23:07N 36°55' W 073°36'218.4
2017-Oct-19 23:00N 36°55' W 073°33'  
2017-Oct-12 08:51N 50°22' W 007°17'6617.0
2017-Oct-12 04:56N 50°54' W 005°46'817.5
2017-Oct-12 04:29N 50°57' W 005°34'1417.8
2017-Oct-12 03:42N 51°03' W 005°14'418.0
2017-Oct-12 03:29N 51°05' W 005°09'918.1
2017-Oct-12 03:00N 51°09' W 004°57'1018.7
2017-Oct-12 02:29N 51°13' W 004°43'6117.3
2017-Oct-11 22:59N 51°22' W 003°07'715.6
2017-Oct-11 22:31N 51°27' W 002°58'713.8
2017-Oct-11 22:00N 51°29' W 002°48'3 5.5
2017-Oct-11 21:30N 51°30' W 002°44'0 0.4
2017-Oct-11 21:00N 51°30' W 002°43'0 0.6
2017-Oct-11 20:30N 51°30' W 002°43'0 0.0
2017-Oct-11 20:00N 51°30' W 002°43'0 0.0
2017-Oct-11 19:30N 51°30' W 002°43'0 0.0
2017-Oct-11 19:00N 51°30' W 002°43'0 0.0
2017-Oct-11 18:30N 51°30' W 002°43'0 0.0
2017-Oct-11 18:00N 51°30' W 002°43'0 0.0
2017-Oct-11 17:30N 51°30' W 002°43'0 0.0
2017-Oct-11 17:00N 51°30' W 002°43'  

Dump ship's entire track history